Time;durP1;ratioP1;P1;durP2;ratioP2;P2;SDS_P1;SDS_P2;PMS_P1;PMS_P2;Temp;Humidity;BMP_temperature;BMP_pressure;BME280_temperature;BME280_humidity;BME280_pressure;Samples;Min_cycle;Max_cycle;Signal;HPM_P1;HPM_P2
2022/12/11 00:01:56;;;;;;;21.35;11.35;;;;;;;2.33;73.71;99003.47;5032982;28;20029;-61
2022/12/11 00:04:22;;;;;;;20.02;11.63;;;;;;;2.33;73.79;99006.09;5032707;28;20026;-60
2022/12/11 00:06:50;;;;;;;20.15;10.82;;;;;;;2.33;73.13;98999.97;5033787;28;20091;-61
2022/12/11 00:09:20;;;;;;;18.25;10.30;;;;;;;2.32;73.12;99012.31;5033442;28;20041;-60
2022/12/11 00:11:46;;;;;;;18.90;10.23;;;;;;;2.24;73.15;99001.38;5032665;28;20115;-59
2022/12/11 00:14:12;;;;;;;16.58;9.48;;;;;;;2.00;73.54;98968.41;5033574;28;20423;-58
2022/12/11 00:16:37;;;;;;;19.52;10.15;;;;;;;2.18;73.58;98985.91;5033592;28;20052;-63
2022/12/11 00:19:03;;;;;;;20.35;9.98;;;;;;;2.20;73.28;98991.94;5033731;28;20395;-61
2022/12/11 00:21:29;;;;;;;20.00;10.15;;;;;;;2.14;73.99;98990.50;5033073;28;20045;-62
2022/12/11 00:23:54;;;;;;;18.25;10.13;;;;;;;2.13;73.98;98986.16;5032376;28;20026;-62
2022/12/11 00:26:19;;;;;;;18.05;10.38;;;;;;;2.21;72.76;98991.00;5033093;28;20055;-60
2022/12/11 00:28:45;;;;;;;15.50;9.63;;;;;;;2.09;73.71;98987.28;5032247;28;20041;-59
2022/12/11 00:31:14;;;;;;;17.17;9.75;;;;;;;2.07;74.19;98987.38;5031872;28;20400;-60
2022/12/11 00:33:40;;;;;;;15.35;9.00;;;;;;;1.81;74.02;98949.28;5033099;28;20080;-62
2022/12/11 00:36:12;;;;;;;19.67;9.35;;;;;;;2.06;73.95;98990.94;5032711;28;20376;-62
2022/12/11 00:38:37;;;;;;;18.63;10.77;;;;;;;2.02;73.82;98976.22;5031440;28;20379;-63
2022/12/11 00:41:03;;;;;;;16.35;9.98;;;;;;;2.05;73.84;98983.97;5033123;28;20112;-59
2022/12/11 00:43:28;;;;;;;16.38;10.13;;;;;;;2.04;74.04;98992.84;5031351;28;20415;-61
2022/12/11 00:45:54;;;;;;;18.42;9.75;;;;;;;2.00;73.93;98986.03;5032454;28;20033;-61
2022/12/11 00:48:20;;;;;;;17.55;10.70;;;;;;;2.06;74.04;98992.75;5032525;28;20075;-62
2022/12/11 00:50:45;;;;;;;17.30;9.45;;;;;;;2.08;74.39;98997.00;5032516;28;20041;-61
2022/12/11 00:53:11;;;;;;;21.05;10.90;;;;;;;2.10;73.87;99003.03;5031955;28;20040;-61
2022/12/11 00:55:41;;;;;;;20.83;10.13;;;;;;;2.12;73.78;99000.31;5032960;28;20037;-59
2022/12/11 00:58:07;;;;;;;22.52;10.75;;;;;;;2.01;73.76;98993.03;5032599;28;20112;-61
2022/12/11 01:00:33;;;;;;;22.70;10.90;;;;;;;2.07;74.12;99005.03;5032757;28;20132;-60
2022/12/11 01:02:58;;;;;;;18.30;10.63;;;;;;;2.06;74.02;99008.59;5032065;28;20152;-61
2022/12/11 01:05:24;;;;;;;21.73;10.50;;;;;;;2.00;74.00;99007.16;5032164;28;20033;-61
2022/12/11 01:07:49;;;;;;;23.70;11.00;;;;;;;1.99;74.04;99011.56;5031734;28;20025;-60
2022/12/11 01:10:24;;;;;;;19.85;10.45;;;;;;;1.95;74.18;99011.88;5032502;28;20025;-62
2022/12/11 01:13:05;;;;;;;18.77;10.23;;;;;;;1.97;74.16;99020.53;5031755;28;20444;-61
2022/12/11 01:15:39;;;;;;;20.65;9.55;;;;;;;1.98;74.18;99025.72;5032517;28;20495;-61
2022/12/11 01:18:04;;;;;;;16.05;9.98;;;;;;;1.87;74.18;99014.94;5032447;28;20026;-60
2022/12/11 01:20:30;;;;;;;24.23;11.07;;;;;;;1.89;74.16;99023.63;5032103;28;20037;-60
2022/12/11 01:22:58;;;;;;;18.88;10.10;;;;;;;1.88;74.18;99023.69;5032479;28;20496;-61
2022/12/11 01:25:25;;;;;;;23.27;10.77;;;;;;;1.83;74.44;99022.19;5032201;28;20025;-60
2022/12/11 01:27:52;;;;;;;21.52;10.80;;;;;;;1.81;74.79;99021.41;5031549;28;20460;-60
2022/12/11 01:30:19;;;;;;;24.83;11.65;;;;;;;1.78;74.83;99015.44;5032006;28;20114;-61
2022/12/11 01:32:45;;;;;;;19.98;10.73;;;;;;;1.84;74.87;99013.31;5032459;28;20040;-59
2022/12/11 01:35:11;;;;;;;22.30;10.63;;;;;;;1.84;74.63;99010.69;5031652;28;20021;-61
2022/12/11 01:37:37;;;;;;;21.02;10.77;;;;;;;1.82;74.65;99012.56;5032196;28;20048;-62
2022/12/11 01:40:05;;;;;;;20.48;11.10;;;;;;;1.83;75.24;99008.97;5031875;28;20037;-61
2022/12/11 01:42:30;;;;;;;21.23;11.32;;;;;;;1.76;75.01;99006.78;5032385;28;20029;-61
2022/12/11 01:45:20;;;;;;;22.58;12.10;;;;;;;1.81;75.00;99015.28;5032062;28;20372;-60
2022/12/11 01:47:50;;;;;;;22.42;11.05;;;;;;;1.78;75.42;99016.31;5031734;28;20099;-61
2022/12/11 01:50:16;;;;;;;20.48;10.68;;;;;;;1.78;75.24;99005.75;5032167;28;20037;-61
2022/12/11 01:52:45;;;;;;;22.08;10.75;;;;;;;1.82;75.04;99011.72;5032459;28;20416;-62
2022/12/11 01:55:11;;;;;;;20.17;10.73;;;;;;;1.74;74.28;99019.22;5032163;28;20440;-59
2022/12/11 01:57:41;;;;;;;23.25;10.80;;;;;;;1.75;75.23;99023.56;5031225;28;20052;-62
2022/12/11 02:00:08;;;;;;;20.35;11.10;;;;;;;1.67;75.55;99018.72;5031342;28;20423;-61
2022/12/11 02:02:33;;;;;;;24.73;11.02;;;;;;;1.64;75.39;99014.47;5032454;28;20095;-59
2022/12/11 02:05:01;;;;;;;24.48;10.57;;;;;;;1.68;75.97;99012.50;5066807;28;20079;-62
2022/12/11 02:07:36;;;;;;;21.77;10.23;;;;;;;1.69;75.49;99015.06;5035803;28;20471;-62
2022/12/11 02:10:02;;;;;;;25.05;10.65;;;;;;;1.70;75.86;99008.84;5036632;28;20095;-62
2022/12/11 02:12:57;;;;;;;24.98;11.18;;;;;;;1.76;75.80;99020.84;5036201;28;20029;-61
2022/12/11 02:15:43;;;;;;;20.48;10.45;;;;;;;1.78;76.08;99033.94;5035285;28;20029;-61
2022/12/11 02:18:12;;;;;;;22.25;10.32;;;;;;;1.74;75.72;99019.22;5035834;28;20044;-62
2022/12/11 02:20:47;;;;;;;22.65;10.93;;;;;;;1.71;76.13;99025.53;5035874;28;20376;-61
2022/12/11 02:23:37;;;;;;;20.60;9.60;;;;;;;1.74;76.04;99028.00;5034921;28;20364;-62
2022/12/11 02:26:15;;;;;;;20.25;10.15;;;;;;;1.75;76.19;99037.63;5035143;28;20049;-62
2022/12/11 02:28:54;;;;;;;21.95;9.65;;;;;;;1.77;76.42;99041.00;5035513;28;20080;-63
2022/12/11 02:31:34;;;;;;;26.05;10.25;;;;;;;1.82;76.24;99051.31;5035846;28;20029;-63
2022/12/11 02:34:21;;;;;;;23.77;9.70;;;;;;;1.89;75.59;99059.72;5034887;28;20130;-60
2022/12/11 02:36:51;;;;;;;20.25;9.88;;;;;;;1.81;75.61;99050.44;5035072;28;20025;-63
2022/12/11 02:39:19;;;;;;;22.63;10.52;;;;;;;1.75;76.14;99042.03;5034611;28;20116;-62
2022/12/11 02:41:48;;;;;;;22.08;9.80;;;;;;;1.75;76.43;99065.78;5035088;28;20120;-62
2022/12/11 02:44:16;;;;;;;35.30;10.98;;;;;;;1.75;76.41;99058.72;5035164;28;20048;-61
2022/12/11 02:46:43;;;;;;;21.52;9.93;;;;;;;1.58;76.48;99041.22;5034774;28;20045;-60
2022/12/11 02:49:11;;;;;;;24.02;11.13;;;;;;;1.58;76.20;99031.50;5033958;28;20045;-61
2022/12/11 02:51:40;;;;;;;29.23;11.65;;;;;;;1.76;76.45;99072.75;5033988;28;20036;-61
2022/12/11 02:54:16;;;;;;;28.27;11.82;;;;;;;1.69;76.29;99065.19;5034622;28;20032;-63
2022/12/11 02:56:48;;;;;;;23.90;10.68;;;;;;;1.56;76.35;99070.31;5035180;28;20041;-62
2022/12/11 02:59:22;;;;;;;26.45;11.00;;;;;;;1.61;76.16;99080.63;5034764;28;20032;-61
2022/12/11 03:01:48;;;;;;;27.38;11.65;;;;;;;1.36;76.29;99038.91;5034080;28;20535;-62
2022/12/11 03:04:14;;;;;;;27.10;10.85;;;;;;;1.54;76.54;99077.47;5034110;28;20043;-61
2022/12/11 03:06:45;;;;;;;28.23;11.68;;;;;;;1.57;76.52;99093.13;5034460;28;20108;-62
2022/12/11 03:09:11;;;;;;;21.15;10.43;;;;;;;1.56;76.64;99093.19;5034091;28;20043;-62
2022/12/11 03:11:36;;;;;;;32.55;11.35;;;;;;;1.57;76.26;99092.28;5033731;28;20038;-62
2022/12/11 03:14:02;;;;;;;30.63;11.02;;;;;;;1.58;76.89;99091.34;5034236;28;20029;-60
2022/12/11 03:16:47;;;;;;;35.30;10.98;;;;;;;1.50;76.14;99080.34;5033797;28;20033;-61
2022/12/11 03:19:38;;;;;;;25.88;9.80;;;;;;;1.53;76.54;99094.22;5035203;28;20026;-62
2022/12/11 03:22:20;;;;;;;30.30;9.73;;;;;;;1.44;76.85;99089.44;5034040;28;20029;-61
2022/12/11 03:24:54;;;;;;;31.05;9.70;;;;;;;1.41;76.77;99105.44;5034237;28;20376;-59
2022/12/11 03:27:31;;;;;;;26.50;8.95;;;;;;;1.40;77.03;99096.69;5033353;28;20033;-60
2022/12/11 03:30:05;;;;;;;27.48;10.30;;;;;;;1.30;76.51;99079.63;5034030;28;20041;-61
2022/12/11 03:32:39;;;;;;;30.92;10.20;;;;;;;1.49;77.00;99111.16;5033775;28;20026;-61
2022/12/11 03:35:05;;;;;;;27.17;9.77;;;;;;;1.49;76.67;99110.28;5034099;28;20388;-60
2022/12/11 03:37:34;;;;;;;27.08;11.35;;;;;;;1.44;77.25;99100.00;5034470;28;20123;-61
2022/12/11 03:40:05;;;;;;;26.50;10.75;;;;;;;1.47;76.59;99115.69;5034102;28;20029;-61
2022/12/11 03:42:31;;;;;;;29.92;11.85;;;;;;;1.49;76.15;99113.81;5033611;28;20037;-61
2022/12/11 03:44:59;;;;;;;34.13;11.98;;;;;;;1.49;76.54;99120.84;5033797;28;20029;-60
2022/12/11 03:47:27;;;;;;;35.88;12.10;;;;;;;1.49;76.08;99116.44;5033854;28;20060;-60
2022/12/11 03:49:55;;;;;;;31.52;11.82;;;;;;;1.45;76.38;99119.31;5033960;28;20061;-61
2022/12/11 03:52:22;;;;;;;31.27;11.95;;;;;;;1.48;76.22;99125.28;5033430;28;20033;-62
2022/12/11 03:54:49;;;;;;;34.53;12.77;;;;;;;1.41;75.70;99135.31;5034066;28;20514;-60
2022/12/11 03:57:20;;;;;;;27.90;11.05;;;;;;;1.35;76.04;99140.06;5034486;28;20472;-61
2022/12/11 03:59:46;;;;;;;32.08;11.82;;;;;;;1.32;76.42;99148.16;5033215;28;20040;-60
2022/12/11 04:02:11;;;;;;;27.45;11.27;;;;;;;1.16;76.27;99121.75;5031876;28;20025;-61
2022/12/11 04:04:38;;;;;;;35.25;10.18;;;;;;;1.31;76.12;99149.09;5033564;28;20025;-61
2022/12/11 04:07:03;;;;;;;31.60;10.75;;;;;;;1.24;75.88;99152.06;5032596;28;20360;-60
2022/12/11 04:09:29;;;;;;;25.33;10.60;;;;;;;1.26;76.83;99154.59;5033401;28;20033;-57
2022/12/11 04:11:54;;;;;;;29.05;11.52;;;;;;;1.34;76.27;99152.41;5032198;28;20029;-61
2022/12/11 04:17:04;;;;;;;26.85;10.93;;;;;;;1.38;76.53;99161.00;5033745;28;20052;-60
2022/12/11 04:25:01;;;;;;;25.40;11.13;;;;;;;1.36;75.38;99163.72;5032435;28;20032;-60
2022/12/11 04:30:15;;;;;;;27.38;11.63;;;;;;;1.35;76.24;99163.81;5032850;28;20041;-61
2022/12/11 04:32:41;;;;;;;30.73;11.55;;;;;;;1.33;75.88;99163.03;5032393;28;20026;-59
2022/12/11 04:35:07;;;;;;;27.75;11.75;;;;;;;1.31;75.75;99171.00;5032708;28;20035;-60
2022/12/11 04:37:34;;;;;;;26.65;11.02;;;;;;;1.29;76.15;99168.47;5032621;28;20033;-62
2022/12/11 04:39:59;;;;;;;34.05;11.93;;;;;;;1.27;76.61;99170.34;5032807;28;20044;-59
2022/12/11 04:42:25;;;;;;;32.65;11.70;;;;;;;1.26;75.50;99170.41;5032364;28;20034;-60
2022/12/11 04:44:50;;;;;;;36.30;13.13;;;;;;;1.24;75.65;99170.50;5033093;28;20120;-61
2022/12/11 04:47:16;;;;;;;32.22;12.32;;;;;;;1.25;76.19;99172.22;5014736;28;20100;-62
2022/12/11 04:49:42;;;;;;;33.03;12.23;;;;;;;1.26;76.11;99168.63;5032307;28;20037;-60
2022/12/11 04:52:08;;;;;;;26.77;11.57;;;;;;;1.21;76.07;99160.13;5032589;28;20076;-60
2022/12/11 04:54:33;;;;;;;32.45;12.05;;;;;;;1.25;75.65;99153.75;5032303;28;20391;-62
2022/12/11 04:56:59;;;;;;;33.83;11.65;;;;;;;1.11;75.57;99143.06;5032209;28;20087;-59
2022/12/11 04:59:24;;;;;;;30.02;12.13;;;;;;;1.20;75.33;99168.94;5032999;28;20029;-59
2022/12/11 05:01:50;;;;;;;33.22;12.13;;;;;;;1.17;75.86;99158.56;5032194;28;20033;-59
2022/12/11 05:04:15;;;;;;;25.23;11.70;;;;;;;1.20;75.97;99168.94;5032165;28;20124;-61
2022/12/11 05:06:41;;;;;;;35.97;12.60;;;;;;;1.17;75.93;99157.72;5032494;28;20414;-60
2022/12/11 05:09:10;;;;;;;31.08;12.45;;;;;;;1.14;75.51;99171.91;5031072;28;20029;-61
2022/12/11 05:11:36;;;;;;;31.30;12.00;;;;;;;0.99;76.03;99157.75;5031910;28;20033;-60
2022/12/11 05:14:02;;;;;;;26.10;11.68;;;;;;;0.72;76.25;99123.97;5031997;28;20029;-62
2022/12/11 05:16:27;;;;;;;26.17;11.55;;;;;;;1.08;76.50;99185.41;5032336;28;20345;-60
2022/12/11 05:18:53;;;;;;;29.08;12.98;;;;;;;1.12;76.04;99186.97;5032148;28;20382;-59
2022/12/11 05:21:18;;;;;;;27.77;12.25;;;;;;;1.09;75.91;99179.22;5032420;28;20459;-61
2022/12/11 05:23:44;;;;;;;30.70;12.90;;;;;;;1.13;75.93;99191.28;5032630;28;20029;-60
2022/12/11 05:26:16;;;;;;;32.00;13.63;;;;;;;1.10;76.14;99186.19;5032023;28;20029;-61
2022/12/11 05:28:43;;;;;;;33.92;12.95;;;;;;;1.06;75.87;99192.56;5031484;28;20041;-61
2022/12/11 05:31:16;;;;;;;31.17;12.68;;;;;;;1.12;76.10;99202.78;5031221;28;20355;-60
2022/12/11 05:33:42;;;;;;;28.00;12.05;;;;;;;1.11;75.73;99206.34;5032183;28;20108;-62
2022/12/11 05:36:13;;;;;;;33.45;13.32;;;;;;;1.14;75.74;99200.91;5030822;28;20482;-61
2022/12/11 05:38:39;;;;;;;32.97;12.50;;;;;;;1.17;76.12;99206.03;5030868;28;20039;-61
2022/12/11 05:41:05;;;;;;;34.28;12.80;;;;;;;1.22;75.47;99219.84;5035591;28;20359;-61
2022/12/11 05:43:34;;;;;;;25.45;11.70;;;;;;;1.24;75.78;99228.53;5036481;28;20539;-61
2022/12/11 05:46:18;;;;;;;27.13;12.55;;;;;;;1.26;75.53;99233.69;5036002;28;20253;-61
2022/12/11 05:48:46;;;;;;;26.08;12.52;;;;;;;1.26;75.18;99253.03;5035460;28;20052;-61
2022/12/11 05:51:13;;;;;;;25.45;11.50;;;;;;;1.22;75.82;99251.50;5036146;28;20036;-61
2022/12/11 05:53:39;;;;;;;31.63;13.50;;;;;;;1.20;75.89;99263.88;5036364;28;20041;-60
2022/12/11 05:56:27;;;;;;;26.15;12.20;;;;;;;1.22;75.41;99259.41;5035185;28;20432;-62
2022/12/11 05:58:53;;;;;;;27.92;12.82;;;;;;;1.18;75.64;99271.00;5035563;28;20064;-61
2022/12/11 06:01:43;;;;;;;28.27;11.88;;;;;;;1.22;75.43;99272.59;5036123;28;20034;-61
2022/12/11 06:04:10;;;;;;;27.52;12.02;;;;;;;1.28;76.04;99267.00;5035571;28;20053;-61
2022/12/11 06:06:36;;;;;;;30.42;11.70;;;;;;;1.26;75.12;99268.00;5035502;28;20036;-61
2022/12/11 06:09:04;;;;;;;30.80;12.77;;;;;;;1.30;75.09;99282.72;5035463;28;20029;-60
2022/12/11 06:11:31;;;;;;;27.42;12.45;;;;;;;1.28;74.80;99290.72;5035108;28;20045;-61
2022/12/11 06:13:57;;;;;;;29.00;12.60;;;;;;;1.24;75.23;99288.31;5035778;28;20363;-63
2022/12/11 06:16:24;;;;;;;26.50;11.52;;;;;;;1.26;74.83;99294.38;5035200;28;20431;-60
2022/12/11 06:18:50;;;;;;;27.30;12.27;;;;;;;1.28;75.02;99309.19;5035399;28;20479;-62
2022/12/11 06:21:24;;;;;;;27.55;11.90;;;;;;;1.48;74.37;99309.09;5035903;28;20039;-62
2022/12/11 06:23:54;;;;;;;25.98;12.52;;;;;;;1.36;73.86;99306.16;5035360;28;20412;-62
2022/12/11 06:26:20;;;;;;;29.67;13.38;;;;;;;1.26;74.60;99308.41;5017129;28;20041;-62
2022/12/11 06:28:46;;;;;;;30.95;12.75;;;;;;;1.24;74.11;99297.09;5034921;28;20360;-63
2022/12/11 06:31:12;;;;;;;25.23;11.35;;;;;;;1.21;74.53;99299.03;5034039;28;20079;-61
2022/12/11 06:33:38;;;;;;;23.67;11.38;;;;;;;1.28;74.90;99311.81;5033984;28;20029;-61
2022/12/11 06:36:13;;;;;;;22.83;10.75;;;;;;;1.43;73.07;99315.47;5034384;28;20025;-61
2022/12/11 06:38:39;;;;;;;23.10;12.70;;;;;;;1.34;73.46;99333.53;5034142;28;20068;-63
2022/12/11 06:41:06;;;;;;;26.38;13.07;;;;;;;1.23;74.04;99339.34;5017538;28;20070;-62
2022/12/11 06:43:37;;;;;;;29.67;13.70;;;;;;;1.22;73.66;99325.31;5034796;28;20083;-62
2022/12/11 06:46:04;;;;;;;30.25;12.77;;;;;;;1.22;74.48;99327.09;5034818;28;20108;-61
2022/12/11 06:48:30;;;;;;;31.40;14.57;;;;;;;1.27;73.47;99303.97;5034542;28;20486;-61
2022/12/11 06:50:56;;;;;;;29.90;13.98;;;;;;;1.24;74.03;99302.38;5034136;28;20041;-63
2022/12/11 06:53:22;;;;;;;28.85;13.77;;;;;;;1.21;73.83;99307.81;5035003;28;20041;-62
2022/12/11 06:55:47;;;;;;;27.05;13.45;;;;;;;1.16;74.04;99283.41;5034655;28;20086;-60
2022/12/11 06:58:13;;;;;;;29.60;15.27;;;;;;;1.14;73.71;99266.81;5033953;28;20029;-61
2022/12/11 07:00:38;;;;;;;34.35;16.08;;;;;;;1.36;73.44;99305.31;5034674;28;20494;-62
2022/12/11 07:03:04;;;;;;;28.40;15.13;;;;;;;1.42;73.65;99310.25;5033908;28;20425;-61
2022/12/11 07:05:31;;;;;;;28.50;15.25;;;;;;;1.42;73.09;99311.13;5034339;28;20108;-60
2022/12/11 07:07:57;;;;;;;30.30;15.68;;;;;;;1.49;72.85;99327.50;5034564;28;20105;-62
2022/12/11 07:10:23;;;;;;;28.25;15.27;;;;;;;1.53;72.93;99329.03;5034726;28;20061;-60
2022/12/11 07:12:51;;;;;;;28.63;15.05;;;;;;;1.53;72.70;99326.41;5032222;28;20025;-60
2022/12/11 07:15:16;;;;;;;23.88;12.15;;;;;;;1.64;72.30;99331.13;5028542;28;20065;-62
2022/12/11 07:17:42;;;;;;;32.30;15.88;;;;;;;1.55;71.60;99340.38;5033070;28;20133;-61
2022/12/11 07:20:08;;;;;;;30.88;16.00;;;;;;;1.42;72.19;99337.50;5034061;28;20033;-61
2022/12/11 07:22:33;;;;;;;33.88;16.80;;;;;;;1.47;72.22;99336.41;5033795;28;20033;-60
2022/12/11 07:24:59;;;;;;;27.15;15.88;;;;;;;1.40;72.07;99327.94;5034151;28;20037;-60
2022/12/11 07:27:24;;;;;;;28.58;16.23;;;;;;;1.36;72.28;99331.69;5034324;28;20357;-59
2022/12/11 07:29:50;;;;;;;32.92;16.80;;;;;;;1.38;72.27;99351.78;5033247;28;20033;-60
2022/12/11 07:32:15;;;;;;;29.45;16.27;;;;;;;1.19;72.36;99298.25;5033829;28;20491;-61
2022/12/11 07:34:41;;;;;;;28.58;16.23;;;;;;;1.43;72.10;99343.63;5033613;28;20356;-62
2022/12/11 07:37:07;;;;;;;25.15;12.68;;;;;;;1.51;71.67;99357.28;5033870;28;20029;-62
2022/12/11 07:39:32;;;;;;;27.40;15.50;;;;;;;1.51;71.12;99354.66;5033032;28;20037;-61
2022/12/11 07:41:58;;;;;;;26.55;15.27;;;;;;;1.49;70.67;99356.53;5032576;28;20130;-62
2022/12/11 07:44:24;;;;;;;31.80;16.35;;;;;;;1.42;72.10;99361.25;5032534;28;20376;-60
2022/12/11 07:46:49;;;;;;;35.25;16.40;;;;;;;1.44;72.61;99347.97;5033946;28;20147;-61
2022/12/11 07:49:15;;;;;;;34.55;17.40;;;;;;;1.39;71.96;99324.47;5033735;28;20057;-62
2022/12/11 07:51:41;;;;;;;29.17;15.82;;;;;;;1.52;72.24;99331.75;5033149;28;20479;-61
2022/12/11 07:54:10;;;;;;;32.30;17.52;;;;;;;1.55;71.44;99326.31;5033390;28;20080;-60
2022/12/11 07:56:36;;;;;;;37.03;17.63;;;;;;;1.56;70.79;99341.22;5032756;28;20033;-61
2022/12/11 07:59:03;;;;;;;30.15;17.27;;;;;;;1.51;71.48;99364.34;5033579;28;20030;-63
2022/12/11 08:01:30;;;;;;;29.88;17.08;;;;;;;1.43;71.94;99385.81;5030670;28;20111;-61
2022/12/11 08:03:57;;;;;;;34.50;18.23;;;;;;;1.41;71.58;99377.13;5032442;28;20129;-61
2022/12/11 08:06:30;;;;;;;29.75;16.83;;;;;;;1.22;71.51;99341.16;5032194;28;20139;-62
2022/12/11 08:08:57;;;;;;;29.52;17.25;;;;;;;1.36;71.52;99363.31;5033402;28;20044;-59
2022/12/11 08:11:23;;;;;;;32.70;17.38;;;;;;;1.36;71.24;99360.69;5032922;28;20352;-61
2022/12/11 08:13:48;;;;;;;33.10;17.15;;;;;;;1.45;71.56;99368.16;5032873;28;20021;-61
2022/12/11 08:16:15;;;;;;;28.98;15.85;;;;;;;1.52;71.07;99363.41;5033341;28;20030;-61
2022/12/11 08:18:42;;;;;;;31.73;16.40;;;;;;;1.65;71.32;99368.91;5032731;28;20048;-60
2022/12/11 08:21:11;;;;;;;32.30;17.70;;;;;;;1.70;70.71;99373.03;5012651;28;20141;-62
2022/12/11 08:23:37;;;;;;;33.20;18.15;;;;;;;1.77;70.66;99373.56;5012496;28;20065;-59
2022/12/11 08:26:08;;;;;;;30.13;17.80;;;;;;;1.68;70.31;99385.44;5014767;28;20376;-61
2022/12/11 08:28:33;;;;;;;32.08;18.88;;;;;;;1.77;69.86;99385.91;5032286;28;20108;-62
2022/12/11 08:30:59;;;;;;;36.03;19.45;;;;;;;1.50;70.62;99355.59;5032121;28;20124;-59
2022/12/11 08:33:24;;;;;;;36.55;19.20;;;;;;;1.61;70.37;99383.19;5032363;28;20510;-61
2022/12/11 08:35:50;;;;;;;31.85;18.52;;;;;;;1.75;71.27;99396.56;5032650;28;20079;-60
2022/12/11 08:38:15;;;;;;;31.90;18.65;;;;;;;1.80;70.32;99393.66;5032533;28;20104;-61
2022/12/11 08:40:41;;;;;;;33.97;18.88;;;;;;;1.81;70.22;99396.25;5031042;28;20072;-60
2022/12/11 08:43:07;;;;;;;35.55;18.38;;;;;;;1.84;69.70;99401.34;5032749;28;20053;-60
2022/12/11 08:45:32;;;;;;;32.90;18.40;;;;;;;1.90;69.65;99420.44;5032464;28;20034;-61
2022/12/11 08:47:59;;;;;;;33.05;17.77;;;;;;;1.91;69.67;99423.03;5031080;28;20049;-62
2022/12/11 08:50:25;;;;;;;29.67;17.17;;;;;;;1.93;69.76;99422.91;5032620;28;20046;-61
2022/12/11 08:52:52;;;;;;;30.40;16.80;;;;;;;1.88;69.18;99428.47;5032164;28;20091;-61
2022/12/11 08:55:18;;;;;;;32.15;18.25;;;;;;;1.89;70.17;99434.56;5032167;28;20037;-62
2022/12/11 08:57:44;;;;;;;33.47;18.67;;;;;;;1.89;69.45;99422.25;5011340;28;20061;-60
2022/12/11 09:00:11;;;;;;;31.15;17.23;;;;;;;1.94;69.69;99416.75;5012165;28;20085;-62
2022/12/11 09:02:37;;;;;;;29.40;17.17;;;;;;;1.97;68.88;99422.69;5012359;28;20422;-63
2022/12/11 09:05:06;;;;;;;29.67;16.90;;;;;;;1.88;69.38;99419.66;5032654;28;20076;-62
2022/12/11 09:07:32;;;;;;;27.65;16.85;;;;;;;1.89;69.25;99429.31;5032108;28;20360;-63
2022/12/11 09:09:58;;;;;;;33.45;17.50;;;;;;;1.69;68.99;99388.97;5032295;28;20033;-61
2022/12/11 09:12:23;;;;;;;30.60;17.25;;;;;;;1.92;69.04;99410.66;5031711;28;20075;-58
2022/12/11 09:14:48;;;;;;;34.58;17.88;;;;;;;1.95;69.18;99429.84;5032474;28;20040;-61
2022/12/11 09:17:14;;;;;;;32.78;16.30;;;;;;;2.01;68.45;99429.53;5032443;28;20329;-62
2022/12/11 09:19:39;;;;;;;26.58;16.08;;;;;;;1.95;68.66;99418.44;5031939;28;20425;-61
2022/12/11 09:22:04;;;;;;;28.33;16.92;;;;;;;1.92;68.95;99427.38;5032783;28;20068;-62
2022/12/11 09:24:30;;;;;;;26.95;15.93;;;;;;;2.04;68.49;99428.53;5032859;28;20041;-62
2022/12/11 09:26:55;;;;;;;26.88;16.25;;;;;;;1.92;68.72;99429.13;5031923;28;20025;-62
2022/12/11 09:29:21;;;;;;;27.98;16.52;;;;;;;1.92;68.67;99424.72;5032188;28;20459;-62
2022/12/11 09:31:47;;;;;;;28.48;15.75;;;;;;;2.00;67.53;99422.53;5032507;28;20021;-62
2022/12/11 09:34:13;;;;;;;27.80;15.75;;;;;;;1.75;68.65;99409.75;5032401;28;20030;-62
2022/12/11 09:36:41;;;;;;;35.35;16.30;;;;;;;1.93;68.12;99425.56;5014322;28;20047;-61
2022/12/11 09:39:07;;;;;;;26.73;15.00;;;;;;;1.72;67.96;99396.72;5031916;28;20456;-61
2022/12/11 09:41:46;;;;;;;24.95;16.23;;;;;;;1.80;68.61;99439.41;5032250;28;20029;-63
2022/12/11 09:44:47;;;;;;;33.80;17.23;;;;;;;1.81;69.24;99446.38;5032009;28;20099;-62
2022/12/11 09:47:26;;;;;;;29.45;15.05;;;;;;;1.93;68.28;99473.97;5031716;28;20092;-62
2022/12/11 09:50:01;;;;;;;30.23;16.17;;;;;;;1.75;68.03;99459.91;5012218;28;20049;-61
2022/12/11 09:53:11;;;;;;;32.08;17.25;;;;;;;1.82;68.31;99476.28;5012586;28;20096;-62
2022/12/11 09:55:44;;;;;;;29.40;16.80;;;;;;;1.82;67.95;99481.56;5012608;28;20034;-60
2022/12/11 09:58:31;;;;;;;27.67;16.50;;;;;;;1.78;68.87;99487.91;5029610;28;20167;-61
2022/12/11 10:01:24;;;;;;;29.63;16.05;;;;;;;1.67;68.33;99459.41;5031119;28;20040;-61
2022/12/11 10:04:10;;;;;;;27.40;15.85;;;;;;;1.88;67.88;99486.53;5031956;28;20044;-60
2022/12/11 10:07:04;;;;;;;28.02;15.38;;;;;;;1.92;68.61;99492.50;5031874;28;20029;-62
2022/12/11 10:09:55;;;;;;;30.75;15.77;;;;;;;2.05;68.32;99488.31;5021863;28;20130;-63
2022/12/11 10:12:41;;;;;;;28.48;16.35;;;;;;;1.91;68.06;99486.38;5031287;28;20100;-62
2022/12/11 10:15:16;;;;;;;35.42;17.98;;;;;;;1.93;68.57;99488.94;5031099;28;20057;-61
2022/12/11 10:17:45;;;;;;;40.13;19.27;;;;;;;1.88;68.13;99486.53;5030431;28;20041;-61
2022/12/11 10:20:19;;;;;;;33.03;18.33;;;;;;;1.89;68.56;99458.34;5031267;28;20095;-61
2022/12/11 10:22:46;;;;;;;33.58;18.17;;;;;;;1.94;66.83;99456.34;5030366;28;20162;-60
2022/12/11 10:25:45;;;;;;;34.35;19.20;;;;;;;1.93;68.63;99457.25;5031673;28;20022;-62
2022/12/11 10:28:13;;;;;;;32.20;19.10;;;;;;;1.75;67.73;99436.16;5026811;28;20104;-60
2022/12/11 10:30:46;;;;;;;32.72;18.80;;;;;;;1.81;68.25;99448.16;5035702;28;20025;-61
2022/12/11 10:33:25;;;;;;;29.35;17.50;;;;;;;1.75;67.90;99441.44;5034972;28;20105;-61
2022/12/11 10:35:56;;;;;;;32.05;17.17;;;;;;;1.78;68.15;99456.25;5033884;28;20118;-60
2022/12/11 10:38:39;;;;;;;37.15;19.75;;;;;;;1.88;69.12;99461.91;5034976;28;20068;-61
2022/12/11 10:41:10;;;;;;;37.75;18.92;;;;;;;1.91;68.94;99462.63;5034614;28;20034;-61
2022/12/11 10:43:39;;;;;;;35.97;17.65;;;;;;;1.66;67.81;99434.81;5035505;28;20475;-61
2022/12/11 10:46:12;;;;;;;30.42;16.98;;;;;;;1.84;67.79;99456.78;5034443;28;20064;-62
2022/12/11 10:48:52;;;;;;;26.05;14.52;;;;;;;1.86;68.06;99447.00;5034082;28;20045;-61
2022/12/11 10:51:20;;;;;;;24.60;13.10;;;;;;;1.99;67.12;99465.72;5034884;28;20041;-62
2022/12/11 10:53:51;;;;;;;22.10;13.18;;;;;;;1.85;65.49;99420.69;5035088;28;20080;-61
2022/12/11 10:56:27;;;;;;;23.70;12.68;;;;;;;1.65;66.72;99469.19;5034406;28;20121;-61
2022/12/11 10:58:55;;;;;;;22.10;12.95;;;;;;;1.60;66.91;99461.53;5034825;28;20443;-61
2022/12/11 11:01:23;;;;;;;25.17;13.68;;;;;;;1.30;67.78;99464.69;5035001;28;20043;-62
2022/12/11 11:04:15;;;;;;;22.92;10.93;;;;;;;1.33;68.21;99459.31;5032937;28;20471;-62
2022/12/11 11:06:40;;;;;;;18.77;10.93;;;;;;;1.43;67.58;99452.66;5033800;28;20033;-62
2022/12/11 11:09:28;;;;;;;23.02;13.13;;;;;;;1.16;68.45;99430.25;5034038;28;20048;-63
2022/12/11 11:11:53;;;;;;;14.85;8.05;;;;;;;1.61;67.15;99449.16;5033699;28;20029;-61
2022/12/11 11:14:21;;;;;;;21.63;10.80;;;;;;;1.54;66.93;99444.19;5034044;28;20038;-60
2022/12/11 11:16:49;;;;;;;22.42;11.98;;;;;;;1.40;67.38;99444.88;5033846;28;20044;-62
2022/12/11 11:19:32;;;;;;;19.52;12.45;;;;;;;1.35;67.85;99448.66;5034840;28;20071;-61
2022/12/11 11:22:06;;;;;;;21.65;11.70;;;;;;;1.36;67.32;99448.59;5033567;28;20041;-63
2022/12/11 11:24:37;;;;;;;22.70;12.60;;;;;;;1.12;68.56;99448.84;5034126;28;20090;-62
2022/12/11 11:27:27;;;;;;;18.92;12.05;;;;;;;1.24;68.28;99444.78;5033193;28;20026;-62
2022/12/11 11:30:00;;;;;;;21.60;12.90;;;;;;;1.14;69.16;99448.78;5014779;28;20411;-60
2022/12/11 11:32:30;;;;;;;20.80;11.82;;;;;;;1.06;69.08;99440.38;5014478;28;20025;-62
2022/12/11 11:35:25;;;;;;;20.92;11.40;;;;;;;1.25;69.30;99449.13;5014257;28;20030;-61
2022/12/11 11:38:02;;;;;;;19.23;10.85;;;;;;;1.24;67.88;99402.59;5013219;28;20435;-61
2022/12/11 11:40:50;;;;;;;18.77;10.88;;;;;;;1.39;67.16;99434.41;5014777;28;20034;-62
2022/12/11 11:43:28;;;;;;;19.80;11.05;;;;;;;1.22;67.85;99432.59;5025703;28;20056;-60
2022/12/11 11:46:25;;;;;;;18.80;11.68;;;;;;;1.14;68.19;99441.72;5034095;28;20084;-62
2022/12/11 11:49:17;;;;;;;19.98;12.27;;;;;;;1.12;68.30;99442.72;5025715;28;20049;-63
2022/12/11 11:52:13;;;;;;;22.00;11.05;;;;;;;0.92;69.46;99441.88;5032880;28;20148;-62